sensor_id;sensor_type;location;lat;lon;timestamp;pressure;altitude;pressure_sealevel;temperature
27826;BMP280;15077;49.704;9.908;2023-02-08T00:01:19;100260.66;;;2.59
27826;BMP280;15077;49.704;9.908;2023-02-08T00:03:46;100265.63;;;2.58
27826;BMP280;15077;49.704;9.908;2023-02-08T00:06:13;100263.03;;;2.55
27826;BMP280;15077;49.704;9.908;2023-02-08T00:08:39;100264.66;;;2.53
27826;BMP280;15077;49.704;9.908;2023-02-08T00:11:06;100267.91;;;2.49
27826;BMP280;15077;49.704;9.908;2023-02-08T00:13:35;100275.38;;;2.47
27826;BMP280;15077;49.704;9.908;2023-02-08T00:16:03;100269.44;;;2.44
27826;BMP280;15077;49.704;9.908;2023-02-08T00:18:30;100261.91;;;2.42
27826;BMP280;15077;49.704;9.908;2023-02-08T00:20:56;100271.00;;;2.40
27826;BMP280;15077;49.704;9.908;2023-02-08T00:23:23;100275.13;;;2.39
27826;BMP280;15077;49.704;9.908;2023-02-08T00:25:49;100270.88;;;2.36
27826;BMP280;15077;49.704;9.908;2023-02-08T00:28:16;100261.72;;;2.35
27826;BMP280;15077;49.704;9.908;2023-02-08T00:30:42;100263.25;;;2.32
27826;BMP280;15077;49.704;9.908;2023-02-08T00:33:09;100271.59;;;2.31
27826;BMP280;15077;49.704;9.908;2023-02-08T00:35:35;100274.03;;;2.29
27826;BMP280;15077;49.704;9.908;2023-02-08T00:38:01;100274.00;;;2.28
27826;BMP280;15077;49.704;9.908;2023-02-08T00:40:27;100277.28;;;2.25
27826;BMP280;15077;49.704;9.908;2023-02-08T00:42:53;100276.34;;;2.22
27826;BMP280;15077;49.704;9.908;2023-02-08T00:45:19;100273.78;;;2.20
27826;BMP280;15077;49.704;9.908;2023-02-08T00:47:44;100275.41;;;2.18
27826;BMP280;15077;49.704;9.908;2023-02-08T00:50:11;100279.53;;;2.16
27826;BMP280;15077;49.704;9.908;2023-02-08T00:52:37;100272.84;;;2.15
27826;BMP280;15077;49.704;9.908;2023-02-08T00:55:05;100271.97;;;2.13
27826;BMP280;15077;49.704;9.908;2023-02-08T00:57:33;100286.97;;;2.13
27826;BMP280;15077;49.704;9.908;2023-02-08T00:59:59;100281.03;;;2.10
27826;BMP280;15077;49.704;9.908;2023-02-08T01:02:26;100284.31;;;2.07
27826;BMP280;15077;49.704;9.908;2023-02-08T01:04:54;100280.09;;;2.06
27826;BMP280;15077;49.704;9.908;2023-02-08T01:07:20;100278.31;;;2.02
27826;BMP280;15077;49.704;9.908;2023-02-08T01:09:46;100279.94;;;2.00
27826;BMP280;15077;49.704;9.908;2023-02-08T01:12:12;100274.06;;;1.98
27826;BMP280;15077;49.704;9.908;2023-02-08T01:14:39;100277.34;;;1.97
27826;BMP280;15077;49.704;9.908;2023-02-08T01:17:05;100276.38;;;1.92
27826;BMP280;15077;49.704;9.908;2023-02-08T01:19:31;100271.31;;;1.90
27826;BMP280;15077;49.704;9.908;2023-02-08T01:21:57;100267.94;;;1.89
27826;BMP280;15077;49.704;9.908;2023-02-08T01:24:42;100259.50;;;1.86
27826;BMP280;15077;49.704;9.908;2023-02-08T01:27:08;100275.28;;;1.83
27826;BMP280;15077;49.704;9.908;2023-02-08T01:29:34;100275.22;;;1.82
27826;BMP280;15077;49.704;9.908;2023-02-08T01:32:00;100277.69;;;1.80
27826;BMP280;15077;49.704;9.908;2023-02-08T01:34:25;100275.94;;;1.78
27826;BMP280;15077;49.704;9.908;2023-02-08T01:36:52;100264.25;;;1.77
27826;BMP280;15077;49.704;9.908;2023-02-08T01:39:19;100257.56;;;1.76
27826;BMP280;15077;49.704;9.908;2023-02-08T01:41:47;100261.69;;;1.74
27826;BMP280;15077;49.704;9.908;2023-02-08T01:46:48;100264.09;;;1.71
27826;BMP280;15077;49.704;9.908;2023-02-08T01:49:28;100259.00;;;1.68
27826;BMP280;15077;49.704;9.908;2023-02-08T01:52:13;100253.94;;;1.65
27826;BMP280;15077;49.704;9.908;2023-02-08T01:54:52;100258.91;;;1.65
27826;BMP280;15077;49.704;9.908;2023-02-08T01:57:20;100248.84;;;1.62
27826;BMP280;15077;49.704;9.908;2023-02-08T01:59:57;100258.84;;;1.62
27826;BMP280;15077;49.704;9.908;2023-02-08T02:02:25;100246.28;;;1.60
27826;BMP280;15077;49.704;9.908;2023-02-08T02:04:52;100257.13;;;1.61
27826;BMP280;15077;49.704;9.908;2023-02-08T02:07:20;100254.59;;;1.59
27826;BMP280;15077;49.704;9.908;2023-02-08T02:09:57;100253.72;;;1.57
27826;BMP280;15077;49.704;9.908;2023-02-08T02:12:25;100252.78;;;1.55
27826;BMP280;15077;49.704;9.908;2023-02-08T02:14:51;100240.25;;;1.54
27826;BMP280;15077;49.704;9.908;2023-02-08T02:17:18;100245.25;;;1.54
27826;BMP280;15077;49.704;9.908;2023-02-08T02:20:16;100247.63;;;1.49
27826;BMP280;15077;49.704;9.908;2023-02-08T02:38:20;100257.75;;;1.26
27826;BMP280;15077;49.704;9.908;2023-02-08T02:41:05;100248.63;;;1.27
27826;BMP280;15077;49.704;9.908;2023-02-08T02:43:45;100240.25;;;1.26
27826;BMP280;15077;49.704;9.908;2023-02-08T02:46:23;100241.13;;;1.27
27826;BMP280;15077;49.704;9.908;2023-02-08T02:49:15;100237.75;;;1.26
27826;BMP280;15077;49.704;9.908;2023-02-08T02:57:18;100241.84;;;1.23
27826;BMP280;15077;49.704;9.908;2023-02-08T02:59:45;100246.00;;;1.22
27826;BMP280;15077;49.704;9.908;2023-02-08T03:02:12;100245.13;;;1.22
27826;BMP280;15077;49.704;9.908;2023-02-08T03:15:42;100233.19;;;1.12
27826;BMP280;15077;49.704;9.908;2023-02-08T03:26:47;100238.75;;;1.03
27826;BMP280;15077;49.704;9.908;2023-02-08T03:32:12;100242.91;;;1.03
27826;BMP280;15077;49.704;9.908;2023-02-08T03:34:55;100238.69;;;1.02
27826;BMP280;15077;49.704;9.908;2023-02-08T03:37:29;100245.34;;;1.01
27826;BMP280;15077;49.704;9.908;2023-02-08T03:40:35;100254.34;;;0.96
27826;BMP280;15077;49.704;9.908;2023-02-08T03:43:36;100256.69;;;0.92
27826;BMP280;15077;49.704;9.908;2023-02-08T03:46:21;100251.66;;;0.91
27826;BMP280;15077;49.704;9.908;2023-02-08T03:48:55;100254.16;;;0.91
27826;BMP280;15077;49.704;9.908;2023-02-08T03:51:27;100265.84;;;0.92
27826;BMP280;15077;49.704;9.908;2023-02-08T03:53:57;100260.78;;;0.90
27826;BMP280;15077;49.704;9.908;2023-02-08T03:56:43;100259.84;;;0.87
27826;BMP280;15077;49.704;9.908;2023-02-08T03:59:39;100256.50;;;0.86
27826;BMP280;15077;49.704;9.908;2023-02-08T04:02:10;100251.47;;;0.85
27826;BMP280;15077;49.704;9.908;2023-02-08T04:04:45;100248.06;;;0.83
27826;BMP280;15077;49.704;9.908;2023-02-08T04:07:12;100244.66;;;0.81
27826;BMP280;15077;49.704;9.908;2023-02-08T04:09:38;100249.66;;;0.81
27826;BMP280;15077;49.704;9.908;2023-02-08T04:12:04;100249.66;;;0.81
27826;BMP280;15077;49.704;9.908;2023-02-08T04:14:30;100243.88;;;0.82
27826;BMP280;15077;49.704;9.908;2023-02-08T04:16:56;100244.66;;;0.81
27826;BMP280;15077;49.704;9.908;2023-02-08T04:19:21;100243.91;;;0.83
27826;BMP280;15077;49.704;9.908;2023-02-08T04:21:47;100238.03;;;0.81
27826;BMP280;15077;49.704;9.908;2023-02-08T04:24:16;100239.72;;;0.82
27826;BMP280;15077;49.704;9.908;2023-02-08T04:26:42;100242.22;;;0.82
27826;BMP280;15077;49.704;9.908;2023-02-08T04:29:08;100241.34;;;0.80
27826;BMP280;15077;49.704;9.908;2023-02-08T04:31:34;100246.28;;;0.79
27826;BMP280;15077;49.704;9.908;2023-02-08T04:34:00;100235.34;;;0.75
27826;BMP280;15077;49.704;9.908;2023-02-08T04:36:27;100235.34;;;0.75
27826;BMP280;15077;49.704;9.908;2023-02-08T04:38:53;100236.19;;;0.76
27826;BMP280;15077;49.704;9.908;2023-02-08T04:41:19;100230.31;;;0.74
27826;BMP280;15077;49.704;9.908;2023-02-08T04:43:44;100233.66;;;0.74
27826;BMP280;15077;49.704;9.908;2023-02-08T04:46:10;100236.88;;;0.72
27826;BMP280;15077;49.704;9.908;2023-02-08T04:48:36;100235.22;;;0.71
27826;BMP280;15077;49.704;9.908;2023-02-08T04:51:02;100239.28;;;0.69
27826;BMP280;15077;49.704;9.908;2023-02-08T04:53:28;100238.44;;;0.68
27826;BMP280;15077;49.704;9.908;2023-02-08T04:55:54;100243.44;;;0.68
27826;BMP280;15077;49.704;9.908;2023-02-08T04:58:21;100247.59;;;0.68
27826;BMP280;15077;49.704;9.908;2023-02-08T05:00:47;100235.91;;;0.67
27826;BMP280;15077;49.704;9.908;2023-02-08T05:03:16;100245.06;;;0.66
27826;BMP280;15077;49.704;9.908;2023-02-08T05:05:42;100241.63;;;0.64
27826;BMP280;15077;49.704;9.908;2023-02-08T05:08:08;100242.41;;;0.62
27826;BMP280;15077;49.704;9.908;2023-02-08T05:10:33;100241.50;;;0.60
27826;BMP280;15077;49.704;9.908;2023-02-08T05:12:59;100238.91;;;0.57
27826;BMP280;15077;49.704;9.908;2023-02-08T05:15:25;100238.00;;;0.55
27826;BMP280;15077;49.704;9.908;2023-02-08T05:17:51;100237.91;;;0.52
27826;BMP280;15077;49.704;9.908;2023-02-08T05:20:16;100233.66;;;0.49
27826;BMP280;15077;49.704;9.908;2023-02-08T05:22:42;100231.06;;;0.47
27826;BMP280;15077;49.704;9.908;2023-02-08T05:25:08;100237.72;;;0.46
27826;BMP280;15077;49.704;9.908;2023-02-08T05:27:35;100227.69;;;0.45
27826;BMP280;15077;49.704;9.908;2023-02-08T05:30:00;100242.66;;;0.45
27826;BMP280;15077;49.704;9.908;2023-02-08T05:32:26;100241.78;;;0.44
27826;BMP280;15077;49.704;9.908;2023-02-08T05:34:52;100239.31;;;0.44
27826;BMP280;15077;49.704;9.908;2023-02-08T05:37:18;100242.63;;;0.43
27826;BMP280;15077;49.704;9.908;2023-02-08T05:39:44;100244.19;;;0.41
27826;BMP280;15077;49.704;9.908;2023-02-08T05:42:09;100238.31;;;0.39
27826;BMP280;15077;49.704;9.908;2023-02-08T05:44:35;100241.59;;;0.38
27826;BMP280;15077;49.704;9.908;2023-02-08T05:47:01;100241.66;;;0.40
27826;BMP280;15077;49.704;9.908;2023-02-08T05:49:28;100244.09;;;0.38
27826;BMP280;15077;49.704;9.908;2023-02-08T05:51:54;100244.09;;;0.38
27826;BMP280;15077;49.704;9.908;2023-02-08T05:54:20;100246.59;;;0.38
27826;BMP280;15077;49.704;9.908;2023-02-08T05:56:45;100240.72;;;0.36
27826;BMP280;15077;49.704;9.908;2023-02-08T05:59:11;100239.88;;;0.36
27826;BMP280;15077;49.704;9.908;2023-02-08T06:01:37;100240.66;;;0.35
27826;BMP280;15077;49.704;9.908;2023-02-08T06:04:03;100247.31;;;0.34
27826;BMP280;15077;49.704;9.908;2023-02-08T06:06:28;100248.09;;;0.33
27826;BMP280;15077;49.704;9.908;2023-02-08T06:08:54;100249.75;;;0.33
27826;BMP280;15077;49.704;9.908;2023-02-08T06:11:20;100250.53;;;0.32
27826;BMP280;15077;49.704;9.908;2023-02-08T06:13:46;100248.81;;;0.31
27826;BMP280;15077;49.704;9.908;2023-02-08T06:16:13;100248.00;;;0.30
27826;BMP280;15077;49.704;9.908;2023-02-08T06:18:39;100250.44;;;0.29
27826;BMP280;15077;49.704;9.908;2023-02-08T06:21:05;100254.59;;;0.28
27826;BMP280;15077;49.704;9.908;2023-02-08T06:23:31;100252.88;;;0.27
27826;BMP280;15077;49.704;9.908;2023-02-08T06:25:57;100262.03;;;0.27
27826;BMP280;15077;49.704;9.908;2023-02-08T06:28:23;100263.59;;;0.25
27826;BMP280;15077;49.704;9.908;2023-02-08T06:30:50;100259.41;;;0.24
27826;BMP280;15077;49.704;9.908;2023-02-08T06:33:17;100266.03;;;0.23
27826;BMP280;15077;49.704;9.908;2023-02-08T06:35:49;100262.66;;;0.21
27826;BMP280;15077;49.704;9.908;2023-02-08T06:38:16;100270.91;;;0.20
27826;BMP280;15077;49.704;9.908;2023-02-08T06:40:42;100265.03;;;0.18
27826;BMP280;15077;49.704;9.908;2023-02-08T06:43:08;100271.75;;;0.19
27826;BMP280;15077;49.704;9.908;2023-02-08T06:45:33;100282.50;;;0.18
27826;BMP280;15077;49.704;9.908;2023-02-08T06:47:59;100276.63;;;0.16
27826;BMP280;15077;49.704;9.908;2023-02-08T06:50:25;100279.13;;;0.16
27826;BMP280;15077;49.704;9.908;2023-02-08T06:52:50;100279.13;;;0.16
27826;BMP280;15077;49.704;9.908;2023-02-08T06:55:16;100283.19;;;0.14
27826;BMP280;15077;49.704;9.908;2023-02-08T06:57:42;100279.00;;;0.13
27826;BMP280;15077;49.704;9.908;2023-02-08T07:00:09;100285.78;;;0.17
27826;BMP280;15077;49.704;9.908;2023-02-08T07:02:34;100284.09;;;0.16
27826;BMP280;15077;49.704;9.908;2023-02-08T07:05:00;100282.41;;;0.15
27826;BMP280;15077;49.704;9.908;2023-02-08T07:07:27;100284.00;;;0.13
27826;BMP280;15077;49.704;9.908;2023-02-08T07:09:52;100277.31;;;0.12
27826;BMP280;15077;49.704;9.908;2023-02-08T07:12:19;100281.44;;;0.12
27826;BMP280;15077;49.704;9.908;2023-02-08T07:14:45;100288.88;;;0.10
27826;BMP280;15077;49.704;9.908;2023-02-08T07:17:11;100292.22;;;0.11
27826;BMP280;15077;49.704;9.908;2023-02-08T07:19:38;100290.56;;;0.11
27826;BMP280;15077;49.704;9.908;2023-02-08T07:22:06;100290.56;;;0.11
27826;BMP280;15077;49.704;9.908;2023-02-08T07:24:38;100290.56;;;0.11
27826;BMP280;15077;49.704;9.908;2023-02-08T07:27:06;100285.56;;;0.11
27826;BMP280;15077;49.704;9.908;2023-02-08T07:29:33;100282.28;;;0.12
27826;BMP280;15077;49.704;9.908;2023-02-08T07:32:00;100285.69;;;0.14
27826;BMP280;15077;49.704;9.908;2023-02-08T07:34:33;100284.88;;;0.15
27826;BMP280;15077;49.704;9.908;2023-02-08T07:36:59;100285.69;;;0.14
27826;BMP280;15077;49.704;9.908;2023-02-08T07:39:25;100276.56;;;0.15
27826;BMP280;15077;49.704;9.908;2023-02-08T07:41:51;100284.09;;;0.16
27826;BMP280;15077;49.704;9.908;2023-02-08T07:44:18;100278.28;;;0.17
27826;BMP280;15077;49.704;9.908;2023-02-08T07:46:44;100275.81;;;0.17
27826;BMP280;15077;49.704;9.908;2023-02-08T07:49:10;100269.16;;;0.16
27826;BMP280;15077;49.704;9.908;2023-02-08T07:51:35;100285.78;;;0.17
27826;BMP280;15077;49.704;9.908;2023-02-08T07:54:02;100270.81;;;0.17
27826;BMP280;15077;49.704;9.908;2023-02-08T07:56:27;100269.25;;;0.19
27826;BMP280;15077;49.704;9.908;2023-02-08T07:58:53;100262.53;;;0.18
27826;BMP280;15077;49.704;9.908;2023-02-08T08:01:19;100257.66;;;0.21
27826;BMP280;15077;49.704;9.908;2023-02-08T08:03:44;100258.56;;;0.23
27826;BMP280;15077;49.704;9.908;2023-02-08T08:06:11;100261.97;;;0.25
27826;BMP280;15077;49.704;9.908;2023-02-08T08:08:37;100269.50;;;0.27
27826;BMP280;15077;49.704;9.908;2023-02-08T08:11:05;100264.56;;;0.28
27826;BMP280;15077;49.704;9.908;2023-02-08T08:13:30;100273.78;;;0.31
27826;BMP280;15077;49.704;9.908;2023-02-08T08:15:56;100277.19;;;0.33
27826;BMP280;15077;49.704;9.908;2023-02-08T08:18:23;100278.06;;;0.35
27826;BMP280;15077;49.704;9.908;2023-02-08T08:20:48;100278.13;;;0.36
27826;BMP280;15077;49.704;9.908;2023-02-08T08:23:14;100278.22;;;0.39
27826;BMP280;15077;49.704;9.908;2023-02-08T08:25:41;100274.94;;;0.40
27826;BMP280;15077;49.704;9.908;2023-02-08T08:28:06;100278.44;;;0.45
27826;BMP280;15077;49.704;9.908;2023-02-08T08:30:32;100262.78;;;0.49
27826;BMP280;15077;49.704;9.908;2023-02-08T08:32:58;100263.72;;;0.52
27826;BMP280;15077;49.704;9.908;2023-02-08T08:35:24;100265.53;;;0.56
27826;BMP280;15077;49.704;9.908;2023-02-08T08:37:49;100267.31;;;0.60
27826;BMP280;15077;49.704;9.908;2023-02-08T08:40:15;100259.94;;;0.63
27826;BMP280;15077;49.704;9.908;2023-02-08T08:42:41;100265.16;;;0.71
27826;BMP280;15077;49.704;9.908;2023-02-08T08:45:07;100260.38;;;0.77
27826;BMP280;15077;49.704;9.908;2023-02-08T08:47:33;100259.75;;;0.84
27826;BMP280;15077;49.704;9.908;2023-02-08T08:49:59;100256.63;;;0.91
27826;BMP280;15077;49.704;9.908;2023-02-08T08:52:24;100253.53;;;0.97
27826;BMP280;15077;49.704;9.908;2023-02-08T08:54:50;100243.75;;;1.03
27826;BMP280;15077;49.704;9.908;2023-02-08T08:57:16;100249.75;;;1.10
27826;BMP280;15077;49.704;9.908;2023-02-08T08:59:42;100243.31;;;1.16
27826;BMP280;15077;49.704;9.908;2023-02-08T09:02:13;100251.88;;;1.24
27826;BMP280;15077;49.704;9.908;2023-02-08T09:04:40;100250.38;;;1.31
27826;BMP280;15077;49.704;9.908;2023-02-08T09:07:07;100257.31;;;1.39
27826;BMP280;15077;49.704;9.908;2023-02-08T09:09:33;100247.50;;;1.45
27826;BMP280;15077;49.704;9.908;2023-02-08T09:11:59;100251.91;;;1.53
27826;BMP280;15077;49.704;9.908;2023-02-08T09:14:26;100259.63;;;1.61
27826;BMP280;15077;49.704;9.908;2023-02-08T09:16:52;100259.88;;;1.70
27826;BMP280;15077;49.704;9.908;2023-02-08T09:19:18;100258.47;;;1.79
27826;BMP280;15077;49.704;9.908;2023-02-08T09:21:44;100258.75;;;1.88
27826;BMP280;15077;49.704;9.908;2023-02-08T09:24:10;100264.84;;;1.97
27826;BMP280;15077;49.704;9.908;2023-02-08T09:26:37;100258.38;;;2.05
27826;BMP280;15077;49.704;9.908;2023-02-08T09:29:04;100259.41;;;2.12
27826;BMP280;15077;49.704;9.908;2023-02-08T09:31:35;100272.13;;;2.19
27826;BMP280;15077;49.704;9.908;2023-02-08T09:34:04;100268.94;;;2.26
27826;BMP280;15077;49.704;9.908;2023-02-08T09:36:38;100270.06;;;2.36
27826;BMP280;15077;49.704;9.908;2023-02-08T09:39:17;100261.91;;;2.42
27826;BMP280;15077;49.704;9.908;2023-02-08T09:42:09;100253.75;;;2.51
27826;BMP280;15077;49.704;9.908;2023-02-08T09:45:07;100254.81;;;2.59
27826;BMP280;15077;49.704;9.908;2023-02-08T09:47:42;100259.25;;;2.70
27826;BMP280;15077;49.704;9.908;2023-02-08T09:50:16;100259.53;;;2.81
27826;BMP280;15077;49.704;9.908;2023-02-08T09:53:14;100253.81;;;2.88
27826;BMP280;15077;49.704;9.908;2023-02-08T09:55:48;100249.81;;;2.94
27826;BMP280;15077;49.704;9.908;2023-02-08T09:58:44;100249.16;;;3.02
27826;BMP280;15077;49.704;9.908;2023-02-08T10:03:45;100241.25;;;3.21
27826;BMP280;15077;49.704;9.908;2023-02-08T10:06:15;100248.22;;;3.34
27826;BMP280;15077;49.704;9.908;2023-02-08T10:08:44;100249.31;;;3.46
27826;BMP280;15077;49.704;9.908;2023-02-08T10:11:49;100253.88;;;3.64
27826;BMP280;15077;49.704;9.908;2023-02-08T10:35:09;100232.16;;;5.63
27826;BMP280;15077;49.704;9.908;2023-02-08T10:37:39;100233.28;;;5.85
27826;BMP280;15077;49.704;9.908;2023-02-08T10:40:38;100235.22;;;6.09
27826;BMP280;15077;49.704;9.908;2023-02-08T10:43:26;100231.22;;;6.27
27826;BMP280;15077;49.704;9.908;2023-02-08T10:46:06;100219.63;;;6.44
27826;BMP280;15077;49.704;9.908;2023-02-08T10:51:25;100211.47;;;6.69
27826;BMP280;15077;49.704;9.908;2023-02-08T10:53:52;100199.78;;;6.79
27826;BMP280;15077;49.704;9.908;2023-02-08T10:56:47;100193.06;;;6.84
27826;BMP280;15077;49.704;9.908;2023-02-08T10:59:29;100190.59;;;6.90
27826;BMP280;15077;49.704;9.908;2023-02-08T11:01:57;100183.91;;;6.94
27826;BMP280;15077;49.704;9.908;2023-02-08T11:04:23;100186.47;;;7.01
27826;BMP280;15077;49.704;9.908;2023-02-08T11:06:50;100184.84;;;7.12
27826;BMP280;15077;49.704;9.908;2023-02-08T11:09:30;100176.53;;;7.23
27826;BMP280;15077;49.704;9.908;2023-02-08T11:11:59;100177.41;;;7.34
27826;BMP280;15077;49.704;9.908;2023-02-08T11:14:38;100177.50;;;7.45
27826;BMP280;15077;49.704;9.908;2023-02-08T11:17:29;100172.47;;;7.52
27826;BMP280;15077;49.704;9.908;2023-02-08T11:19:57;100169.97;;;7.63
27826;BMP280;15077;49.704;9.908;2023-02-08T11:22:27;100167.50;;;7.72
27826;BMP280;15077;49.704;9.908;2023-02-08T11:25:01;100164.97;;;7.77
27826;BMP280;15077;49.704;9.908;2023-02-08T11:30:25;100165.84;;;7.90
27826;BMP280;15077;49.704;9.908;2023-02-08T11:33:18;100151.56;;;7.95
27826;BMP280;15077;49.704;9.908;2023-02-08T11:36:06;100146.53;;;8.04
27826;BMP280;15077;49.704;9.908;2023-02-08T11:38:40;100139.81;;;8.13
27826;BMP280;15077;49.704;9.908;2023-02-08T11:41:14;100128.00;;;8.09
27826;BMP280;15077;49.704;9.908;2023-02-08T11:43:41;100128.91;;;8.24
27826;BMP280;15077;49.704;9.908;2023-02-08T11:46:09;100128.06;;;8.36
27826;BMP280;15077;49.704;9.908;2023-02-08T11:48:45;100122.13;;;8.47
27826;BMP280;15077;49.704;9.908;2023-02-08T11:51:35;100118.78;;;8.54
27826;BMP280;15077;49.704;9.908;2023-02-08T11:54:04;100107.81;;;8.64
27826;BMP280;15077;49.704;9.908;2023-02-08T11:56:33;100107.81;;;8.74
27826;BMP280;15077;49.704;9.908;2023-02-08T11:59:19;100108.63;;;8.76
27826;BMP280;15077;49.704;9.908;2023-02-08T12:01:46;100109.47;;;8.81
27826;BMP280;15077;49.704;9.908;2023-02-08T12:04:15;100101.88;;;8.86
27826;BMP280;15077;49.704;9.908;2023-02-08T12:09:46;100101.88;;;8.92
27826;BMP280;15077;49.704;9.908;2023-02-08T12:21:26;100095.03;;;9.18
27826;BMP280;15077;49.704;9.908;2023-02-08T12:27:14;100073.84;;;9.36
27826;BMP280;15077;49.704;9.908;2023-02-08T12:32:56;100066.16;;;9.56
27826;BMP280;15077;49.704;9.908;2023-02-08T12:36:36;100054.28;;;9.65
27826;BMP280;15077;49.704;9.908;2023-02-08T12:42:23;100046.59;;;9.78
27826;BMP280;15077;49.704;9.908;2023-02-08T12:51:15;100035.53;;;9.90
27826;BMP280;15077;49.704;9.908;2023-02-08T12:53:53;100032.97;;;9.97
27826;BMP280;15077;49.704;9.908;2023-02-08T12:56:25;100023.63;;;10.04
27826;BMP280;15077;49.704;9.908;2023-02-08T12:58:59;100021.88;;;10.12
27826;BMP280;15077;49.704;9.908;2023-02-08T13:01:37;100024.34;;;10.19
27826;BMP280;15077;49.704;9.908;2023-02-08T13:04:16;100024.28;;;10.25
27826;BMP280;15077;49.704;9.908;2023-02-08T13:06:52;100024.25;;;10.28
27826;BMP280;15077;49.704;9.908;2023-02-08T13:09:34;100017.50;;;10.30
27826;BMP280;15077;49.704;9.908;2023-02-08T13:16:20;100013.28;;;10.29
27826;BMP280;15077;49.704;9.908;2023-02-08T13:18:59;100016.63;;;10.29
27826;BMP280;15077;49.704;9.908;2023-02-08T13:21:32;100004.88;;;10.25
27826;BMP280;15077;49.704;9.908;2023-02-08T13:24:05;99999.84;;;10.19
27826;BMP280;15077;49.704;9.908;2023-02-08T13:26:39;100002.44;;;10.12
27826;BMP280;15077;49.704;9.908;2023-02-08T13:29:16;100001.63;;;10.07
27826;BMP280;15077;49.704;9.908;2023-02-08T13:31:48;99993.31;;;9.96
27826;BMP280;15077;49.704;9.908;2023-02-08T13:37:03;99979.94;;;9.72
27826;BMP280;15077;49.704;9.908;2023-02-08T13:40:25;99965.72;;;9.55
27826;BMP280;15077;49.704;9.908;2023-02-08T13:46:11;99978.44;;;9.47
27826;BMP280;15077;49.704;9.908;2023-02-08T13:48:55;99970.00;;;9.47
27826;BMP280;15077;49.704;9.908;2023-02-08T13:56:43;99964.19;;;9.37
27826;BMP280;15077;49.704;9.908;2023-02-08T14:02:23;99956.69;;;9.24
27826;BMP280;15077;49.704;9.908;2023-02-08T14:08:02;99952.50;;;9.14
27826;BMP280;15077;49.704;9.908;2023-02-08T14:10:40;99943.19;;;9.22
27826;BMP280;15077;49.704;9.908;2023-02-08T14:13:31;99945.75;;;9.16
27826;BMP280;15077;49.704;9.908;2023-02-08T14:16:26;99933.13;;;9.10
27826;BMP280;15077;49.704;9.908;2023-02-08T14:18:58;99931.44;;;9.11
27826;BMP280;15077;49.704;9.908;2023-02-08T14:24:19;99930.63;;;9.04
27826;BMP280;15077;49.704;9.908;2023-02-08T14:26:47;99926.41;;;9.03
27826;BMP280;15077;49.704;9.908;2023-02-08T14:29:23;99927.28;;;9.02
27826;BMP280;15077;49.704;9.908;2023-02-08T14:31:52;99924.78;;;8.99
27826;BMP280;15077;49.704;9.908;2023-02-08T14:34:34;99918.03;;;8.98
27826;BMP280;15077;49.704;9.908;2023-02-08T14:37:28;99912.97;;;8.98
27826;BMP280;15077;49.704;9.908;2023-02-08T14:40:31;99908.75;;;8.97
27826;BMP280;15077;49.704;9.908;2023-02-08T14:43:37;99908.75;;;8.97
27826;BMP280;15077;49.704;9.908;2023-02-08T14:49:16;99907.06;;;9.02
27826;BMP280;15077;49.704;9.908;2023-02-08T14:51:50;99893.53;;;9.03
27826;BMP280;15077;49.704;9.908;2023-02-08T14:54:28;99896.06;;;9.03
27826;BMP280;15077;49.704;9.908;2023-02-08T14:57:03;99891.88;;;9.02
27826;BMP280;15077;49.704;9.908;2023-02-08T14:59:34;99893.53;;;9.02
27826;BMP280;15077;49.704;9.908;2023-02-08T15:02:11;99880.91;;;9.00
27826;BMP280;15077;49.704;9.908;2023-02-08T15:04:44;99880.91;;;8.99
27826;BMP280;15077;49.704;9.908;2023-02-08T15:07:34;99875.91;;;8.93
27826;BMP280;15077;49.704;9.908;2023-02-08T15:10:04;99875.88;;;8.96
27826;BMP280;15077;49.704;9.908;2023-02-08T15:12:38;99882.63;;;8.97
27826;BMP280;15077;49.704;9.908;2023-02-08T15:15:21;99881.81;;;8.96
27826;BMP280;15077;49.704;9.908;2023-02-08T15:17:50;99884.31;;;8.98
27826;BMP280;15077;49.704;9.908;2023-02-08T15:20:26;99884.31;;;8.96
27826;BMP280;15077;49.704;9.908;2023-02-08T15:23:04;99890.22;;;8.95
27826;BMP280;15077;49.704;9.908;2023-02-08T15:25:33;99881.81;;;8.92
27826;BMP280;15077;49.704;9.908;2023-02-08T15:28:21;99887.72;;;8.91
27826;BMP280;15077;49.704;9.908;2023-02-08T15:31:03;99885.22;;;8.88
27826;BMP280;15077;49.704;9.908;2023-02-08T15:33:33;99890.25;;;8.89
27826;BMP280;15077;49.704;9.908;2023-02-08T15:36:04;99888.56;;;8.88
27826;BMP280;15077;49.704;9.908;2023-02-08T15:38:32;99892.00;;;8.84
27826;BMP280;15077;49.704;9.908;2023-02-08T15:41:12;99892.03;;;8.78
27826;BMP280;15077;49.704;9.908;2023-02-08T15:43:40;99890.34;;;8.74
27826;BMP280;15077;49.704;9.908;2023-02-08T15:46:22;99890.38;;;8.71
27826;BMP280;15077;49.704;9.908;2023-02-08T15:48:52;99889.50;;;8.69
27826;BMP280;15077;49.704;9.908;2023-02-08T15:51:19;99895.44;;;8.70
27826;BMP280;15077;49.704;9.908;2023-02-08T15:53:51;99882.81;;;8.67
27826;BMP280;15077;49.704;9.908;2023-02-08T15:56:34;99876.09;;;8.60
27826;BMP280;15077;49.704;9.908;2023-02-08T15:59:03;99874.41;;;8.59
27826;BMP280;15077;49.704;9.908;2023-02-08T16:01:30;99876.09;;;8.57
27826;BMP280;15077;49.704;9.908;2023-02-08T16:04:02;99882.84;;;8.57
27826;BMP280;15077;49.704;9.908;2023-02-08T16:06:45;99880.34;;;8.54
27826;BMP280;15077;49.704;9.908;2023-02-08T16:09:26;99889.56;;;8.59
27826;BMP280;15077;49.704;9.908;2023-02-08T16:11:56;99886.19;;;8.63
27826;BMP280;15077;49.704;9.908;2023-02-08T16:14:24;99890.41;;;8.63
27826;BMP280;15077;49.704;9.908;2023-02-08T16:16:55;99881.16;;;8.60
27826;BMP280;15077;49.704;9.908;2023-02-08T16:19:32;99886.22;;;8.56
27826;BMP280;15077;49.704;9.908;2023-02-08T16:24:46;99894.66;;;8.49
27826;BMP280;15077;49.704;9.908;2023-02-08T16:27:30;99890.50;;;8.45
27826;BMP280;15077;49.704;9.908;2023-02-08T16:29:58;99893.03;;;8.43
27826;BMP280;15077;49.704;9.908;2023-02-08T16:32:31;99894.69;;;8.44
27826;BMP280;15077;49.704;9.908;2023-02-08T16:34:58;99886.28;;;8.41
27826;BMP280;15077;49.704;9.908;2023-02-08T16:37:32;99894.72;;;8.40
27826;BMP280;15077;49.704;9.908;2023-02-08T16:40:04;99884.66;;;8.28
27826;BMP280;15077;49.704;9.908;2023-02-08T16:42:37;99889.69;;;8.32
27826;BMP280;15077;49.704;9.908;2023-02-08T16:50:24;99883.81;;;8.27
27826;BMP280;15077;49.704;9.908;2023-02-08T16:53:11;99882.13;;;8.25
27826;BMP280;15077;49.704;9.908;2023-02-08T16:55:37;99884.66;;;8.23